createdAt,value
2023-04-05T00:00:50.367Z,1.50
2023-04-05T00:03:20.925Z,1.47
2023-04-05T00:05:51.471Z,1.23
2023-04-05T00:08:28.567Z,1.53
2023-04-05T00:10:58.896Z,1.40
2023-04-05T00:13:29.384Z,1.70
2023-04-05T00:16:01.490Z,1.50
2023-04-05T00:18:34.557Z,1.40
2023-04-05T00:21:04.990Z,1.20
2023-04-05T00:23:38.798Z,1.57
2023-04-05T00:26:09.314Z,1.20
2023-04-05T00:28:40.432Z,1.57
2023-04-05T00:31:11.088Z,1.37
2023-04-05T00:33:41.756Z,1.53
2023-04-05T00:36:13.396Z,1.43
2023-04-05T00:38:46.825Z,1.60
2023-04-05T00:41:17.798Z,1.10
2023-04-05T00:43:48.110Z,2.17
2023-04-05T00:46:19.018Z,1.50
2023-04-05T00:48:49.389Z,1.63
2023-04-05T00:51:20.328Z,1.80
2023-04-05T00:53:55.320Z,1.27
2023-04-05T00:56:26.156Z,1.53
2023-04-05T00:58:56.618Z,1.30
2023-04-05T01:01:29.185Z,1.80
2023-04-05T01:04:03.231Z,1.60
2023-04-05T01:09:09.236Z,1.60
2023-04-05T01:11:42.165Z,1.80
2023-04-05T01:14:12.509Z,1.40
2023-04-05T01:16:42.812Z,1.60
2023-04-05T01:19:13.548Z,2.00
2023-04-05T01:21:50.779Z,1.37
2023-04-05T01:24:34.570Z,2.53
2023-04-05T01:27:08.102Z,4.17
2023-04-05T01:29:52.743Z,6.22
2023-04-05T01:32:32.976Z,5.53
2023-04-05T01:35:05.799Z,5.97
2023-04-05T01:37:38.118Z,6.00
2023-04-05T01:40:09.194Z,4.27
2023-04-05T01:42:39.741Z,3.57
2023-04-05T01:45:15.021Z,2.20
2023-04-05T01:47:45.716Z,1.92
2023-04-05T01:50:17.035Z,1.83
2023-04-05T01:52:47.373Z,1.50
2023-04-05T01:55:20.081Z,1.90
2023-04-05T01:57:50.513Z,2.40
2023-04-05T02:00:23.534Z,2.40
2023-04-05T02:02:55.678Z,2.87
2023-04-05T02:05:26.121Z,2.40
2023-04-05T02:07:56.575Z,2.97
2023-04-05T02:10:26.944Z,2.40
2023-04-05T02:12:58.120Z,1.60
2023-04-05T02:15:31.096Z,1.60
2023-04-05T02:18:02.375Z,2.13
2023-04-05T02:20:33.150Z,1.53
2023-04-05T02:23:03.645Z,2.20
2023-04-05T02:25:34.002Z,1.93
2023-04-05T02:28:04.320Z,1.70
2023-04-05T02:30:37.334Z,1.73
2023-04-05T02:33:09.766Z,1.53
2023-04-05T02:35:40.212Z,1.50
2023-04-05T02:38:10.528Z,1.50
2023-04-05T02:40:42.354Z,1.60
2023-04-05T02:43:13.206Z,1.50
2023-04-05T02:45:47.088Z,1.20
2023-04-05T02:48:18.082Z,1.63
2023-04-05T02:50:51.383Z,1.83
2023-04-05T02:53:22.645Z,1.48
2023-04-05T02:56:02.656Z,2.00
2023-04-05T02:58:34.561Z,2.33
2023-04-05T03:01:09.020Z,1.87
2023-04-05T03:03:40.684Z,1.35
2023-04-05T03:06:13.583Z,2.13
2023-04-05T03:08:49.438Z,1.60
2023-04-05T03:11:28.326Z,1.63
2023-04-05T03:14:01.779Z,0.95
2023-04-05T03:16:43.047Z,1.80
2023-04-05T03:19:22.818Z,1.80
2023-04-05T03:21:58.340Z,1.63
2023-04-05T03:24:36.655Z,1.50
2023-04-05T03:27:10.174Z,2.07
2023-04-05T03:29:49.296Z,1.60
2023-04-05T03:32:24.239Z,2.10
2023-04-05T03:35:02.911Z,1.47
2023-04-05T03:37:33.795Z,1.93
2023-04-05T03:40:10.768Z,1.60
2023-04-05T03:42:41.315Z,1.65
2023-04-05T03:45:12.136Z,2.03
2023-04-05T03:47:45.136Z,2.90
2023-04-05T03:50:15.517Z,1.77
2023-04-05T03:52:46.511Z,2.63
2023-04-05T03:55:17.294Z,2.00
2023-04-05T03:57:48.515Z,1.37
2023-04-05T04:03:16.601Z,1.70
2023-04-05T04:05:51.002Z,1.60
2023-04-05T04:08:21.918Z,1.80
2023-04-05T04:10:52.808Z,2.00
2023-04-05T04:13:28.518Z,1.77
2023-04-05T04:16:09.973Z,2.13
2023-04-05T04:18:54.444Z,2.00
2023-04-05T04:21:39.751Z,2.40
2023-04-05T04:24:27.235Z,1.93
2023-04-05T04:27:17.248Z,2.50
2023-04-05T04:30:10.836Z,1.87
2023-04-05T04:33:00.021Z,1.60
2023-04-05T04:35:42.611Z,2.23
2023-04-05T04:38:26.242Z,2.23
2023-04-05T04:41:29.538Z,2.05
2023-04-05T04:44:31.460Z,1.73
2023-04-05T04:47:24.436Z,2.17
2023-04-05T04:50:10.348Z,2.05
2023-04-05T04:52:43.572Z,2.20
2023-04-05T04:55:14.489Z,2.10
2023-04-05T04:57:45.190Z,2.37
2023-04-05T05:00:16.749Z,1.70
2023-04-05T05:02:47.907Z,2.60
2023-04-05T05:05:22.849Z,2.03
2023-04-05T05:07:55.809Z,2.80
2023-04-05T05:10:26.136Z,2.00
2023-04-05T05:15:30.688Z,1.23
2023-04-05T05:18:01.102Z,2.07
2023-04-05T05:20:31.502Z,2.67
2023-04-05T05:23:05.523Z,2.30
2023-04-05T05:25:36.682Z,2.05
2023-04-05T05:28:08.353Z,2.20
2023-04-05T05:30:38.955Z,2.57
2023-04-05T05:33:09.524Z,2.47
2023-04-05T05:35:41.140Z,2.17
2023-04-05T05:38:14.170Z,2.03
2023-04-05T05:40:44.469Z,2.50
2023-04-05T05:43:15.682Z,2.63
2023-04-05T05:45:46.090Z,2.67
2023-04-05T05:48:16.388Z,2.07
2023-04-05T05:50:48.877Z,2.87
2023-04-05T05:53:21.799Z,2.73
2023-04-05T05:55:52.130Z,1.97
2023-04-05T05:58:22.447Z,1.70
2023-04-05T06:00:56.872Z,2.50
2023-04-05T06:05:58.246Z,2.27
2023-04-05T06:08:31.249Z,1.83
2023-04-05T06:11:01.984Z,2.20
2023-04-05T06:13:32.388Z,1.60
2023-04-05T06:16:04.735Z,2.27
2023-04-05T06:18:35.144Z,3.20
2023-04-05T06:21:05.416Z,2.50
2023-04-05T06:23:38.362Z,1.93
2023-04-05T06:26:08.743Z,2.10
2023-04-05T06:28:39.119Z,2.30
2023-04-05T06:31:10.430Z,2.33
2023-04-05T06:33:41.994Z,1.23
2023-04-05T06:36:12.650Z,1.63
2023-04-05T06:38:45.997Z,1.50
2023-04-05T06:41:16.293Z,2.20
2023-04-05T06:43:46.621Z,1.57
2023-04-05T06:46:17.070Z,2.10
2023-04-05T06:48:48.527Z,1.50
2023-04-05T06:51:18.965Z,1.60
2023-04-05T06:53:51.947Z,1.47
2023-04-05T06:56:23.384Z,2.10
2023-04-05T06:58:54.305Z,2.00
2023-04-05T07:01:25.239Z,2.03
2023-04-05T07:03:55.817Z,1.87
2023-04-05T07:06:26.971Z,2.47
2023-04-05T07:08:59.921Z,1.60
2023-04-05T07:11:32.916Z,1.77
2023-04-05T07:14:03.421Z,2.30
2023-04-05T07:16:34.106Z,2.40
2023-04-05T07:19:06.258Z,2.27
2023-04-05T07:21:36.711Z,1.87
2023-04-05T07:24:10.122Z,2.03
2023-04-05T07:26:40.638Z,1.97
2023-04-05T07:29:11.493Z,1.97
2023-04-05T07:31:42.222Z,2.53
2023-04-05T07:34:12.684Z,2.03
2023-04-05T07:36:42.989Z,2.17
2023-04-05T07:39:16.103Z,1.70
2023-04-05T07:41:46.531Z,1.90
2023-04-05T07:44:16.850Z,1.83
2023-04-05T07:46:49.160Z,1.60
2023-04-05T07:49:19.866Z,1.63
2023-04-05T07:51:51.237Z,1.93
2023-04-05T07:54:24.249Z,1.83
2023-04-05T07:56:55.556Z,1.63
2023-04-05T07:59:26.240Z,1.80
2023-04-05T08:01:59.258Z,1.70
2023-04-05T08:04:35.216Z,1.57
2023-04-05T08:07:05.740Z,1.20
2023-04-05T08:09:39.134Z,1.30
2023-04-05T08:12:11.575Z,1.58
2023-04-05T08:14:41.956Z,1.50
2023-04-05T08:17:12.270Z,1.50
2023-04-05T08:19:42.648Z,1.50
2023-04-05T08:22:13.068Z,1.58
2023-04-05T08:24:46.096Z,1.63
2023-04-05T08:27:17.183Z,2.22
2023-04-05T08:29:47.575Z,1.52
2023-04-05T08:32:18.081Z,1.25
2023-04-05T08:34:48.657Z,1.42
2023-04-05T08:37:19.018Z,1.27
2023-04-05T08:39:52.105Z,1.30
2023-04-05T08:42:27.199Z,1.35
2023-04-05T08:44:58.670Z,1.23
2023-04-05T08:47:29.405Z,1.40
2023-04-05T08:49:59.830Z,1.55
2023-04-05T08:52:31.423Z,1.30
2023-04-05T08:55:04.231Z,1.65
2023-04-05T08:57:34.706Z,1.80
2023-04-05T09:00:05.530Z,1.67
2023-04-05T09:02:36.469Z,1.58
2023-04-05T09:05:11.888Z,1.90
2023-04-05T09:07:42.439Z,1.67
2023-04-05T09:10:16.944Z,1.80
2023-04-05T09:15:17.891Z,1.80
2023-04-05T09:17:48.451Z,1.60
2023-04-05T09:20:18.841Z,2.25
2023-04-05T09:22:50.011Z,1.55
2023-04-05T09:25:38.809Z,1.80
2023-04-05T09:28:09.448Z,1.60
2023-04-05T09:30:40.332Z,1.17
2023-04-05T09:33:12.662Z,1.60
2023-04-05T09:35:43.070Z,1.70
2023-04-05T09:38:13.498Z,1.67
2023-04-05T09:40:48.190Z,1.80
2023-04-05T09:43:39.504Z,1.50
2023-04-05T09:46:09.998Z,2.35
2023-04-05T09:48:49.815Z,1.38
2023-04-05T09:51:20.723Z,2.15
2023-04-05T09:54:01.995Z,1.60
2023-04-05T09:56:35.717Z,1.95
2023-04-05T09:59:06.981Z,1.30
2023-04-05T10:01:38.490Z,1.55
2023-04-05T10:04:11.269Z,1.45
2023-04-05T10:06:42.393Z,1.65
2023-04-05T10:09:15.318Z,1.77
2023-04-05T10:11:48.570Z,1.60
2023-04-05T10:14:18.914Z,1.63
2023-04-05T10:16:57.414Z,1.38
2023-04-05T10:19:31.333Z,1.35
